Terminal Aerodrome Forecast
Issued by NWS

Home | Current Version | Previous Version | Graphics & Text | Print | Product List | Glossary On
Versions: 1 2 3 4 5 6 7 8 9 10 11 12 13 14
000
FTUS45 KGGW 271700
TAFGDV
TAF
KGDV 271722Z 2718/2818 27022G28KT P6SM -SHRA SCT015 OVC025
     FM272100 30020G30KT P6SM -SHRA SCT015 OVC025
     FM280300 30018KT P6SM SCT015 OVC025
     FM281600 30011KT P6SM SCT025
      AMD LTD TO CLD VIS AND WIND=

USA.gov is the U.S. government's official web portal to all federal, state and local government web resources and services.